Time;durP1;ratioP1;P1;durP2;ratioP2;P2;SDS_P1;SDS_P2;PMS_P1;PMS_P2;Temp;Humidity;BMP_temperature;BMP_pressure;BME280_temperature;BME280_humidity;BME280_pressure;Samples;Min_cycle;Max_cycle;Signal;HPM_P1;HPM_P2
2022/04/01 00:00:12;;;;;;;21.17;6.15;;;;;;;;;;5025627;28;20029;-87
2022/04/01 00:02:38;;;;;;;23.88;7.00;;;;;;;;;;5033900;28;20033;-86
2022/04/01 00:05:05;;;;;;;35.40;6.88;;;;;;;;;;5033664;28;20431;-86
2022/04/01 00:07:31;;;;;;;32.95;6.63;;;;;;;;;;5034990;28;20484;-86
2022/04/01 00:09:57;;;;;;;26.55;6.28;;;;;;;;;;5037434;28;20029;-86
2022/04/01 00:12:22;;;;;;;27.92;6.43;;;;;;;;;;5033843;28;20025;-85
2022/04/01 00:14:48;;;;;;;33.75;7.15;;;;;;;;;;5035071;28;20440;-86
2022/04/01 00:17:13;;;;;;;23.67;5.75;;;;;;;;;;5034632;28;22114;-87
2022/04/01 00:19:39;;;;;;;29.30;6.40;;;;;;;;;;5033556;28;20029;-84
2022/04/01 00:22:05;;;;;;;26.08;7.13;;;;;;;;;;5032837;28;20033;-85
2022/04/01 00:24:32;;;;;;;34.65;7.45;;;;;;;;;;5033795;28;20024;-86
2022/04/01 00:26:59;;;;;;;29.60;8.10;;;;;;;;;;5041829;28;20037;-84
2022/04/01 00:29:24;;;;;;;29.23;7.45;;;;;;;;;;5033101;28;20472;-86
2022/04/01 00:32:01;;;;;;;39.30;8.25;;;;;;;;;;5034564;28;20031;-87
2022/04/01 00:34:31;;;;;;;31.40;7.32;;;;;;;;;;5034156;28;20380;-86
2022/04/01 00:36:59;;;;;;;24.50;7.60;;;;;;;;;;5033352;28;20532;-86
2022/04/01 00:39:25;;;;;;;34.08;8.55;;;;;;;;;;5033304;28;20083;-86
2022/04/01 00:41:52;;;;;;;35.60;8.77;;;;;;;;;;5033080;28;20112;-86
2022/04/01 00:44:21;;;;;;;30.77;8.05;;;;;;;;;;5032855;28;20030;-86
2022/04/01 00:46:49;;;;;;;27.73;8.53;;;;;;;;;;5032651;28;20029;-87
2022/04/01 00:49:16;;;;;;;33.03;8.15;;;;;;;;;;5032058;28;20140;-87
2022/04/01 00:51:43;;;;;;;40.25;7.85;;;;;;;;;;5033953;28;20029;-87
2022/04/01 00:54:10;;;;;;;31.27;7.55;;;;;;;;;;5030687;28;20045;-85
2022/04/01 00:56:37;;;;;;;34.42;8.13;;;;;;;;;;5033410;28;20049;-86
2022/04/01 00:59:03;;;;;;;39.80;9.07;;;;;;;;;;5032644;28;20029;-86
2022/04/01 01:01:31;;;;;;;29.00;5.68;;;;;;;;;;5032146;28;20025;-88
2022/04/01 01:04:00;;;;;;;25.33;6.28;;;;;;;;;;5032316;28;20022;-88
2022/04/01 01:06:26;;;;;;;30.67;7.30;;;;;;;;;;5032692;28;20153;-85
2022/04/01 01:08:52;;;;;;;33.38;7.10;;;;;;;;;;5031273;28;20041;-87
2022/04/01 01:11:18;;;;;;;30.30;7.43;;;;;;;;;;5033358;28;20108;-87
2022/04/01 01:13:45;;;;;;;30.40;9.85;;;;;;;;;;5032943;28;20108;-86
2022/04/01 01:16:11;;;;;;;39.78;8.32;;;;;;;;;;5031847;28;20029;-85
2022/04/01 01:18:36;;;;;;;26.58;6.82;;;;;;;;;;5031824;28;20385;-87
2022/04/01 01:21:02;;;;;;;39.50;7.45;;;;;;;;;;5031810;28;20029;-86
2022/04/01 01:23:32;;;;;;;35.97;7.88;;;;;;;;;;5031903;28;20029;-86
2022/04/01 01:25:57;;;;;;;77.30;12.85;;;;;;;;;;5031734;28;20025;-85
2022/04/01 01:28:24;;;;;;;43.92;9.18;;;;;;;;;;5031867;28;20108;-86
2022/04/01 01:30:50;;;;;;;30.83;8.52;;;;;;;;;;5031511;28;20033;-86
2022/04/01 01:33:19;;;;;;;27.98;8.55;;;;;;;;;;5032185;28;20021;-86
2022/04/01 01:35:46;;;;;;;32.85;7.85;;;;;;;;;;5031212;28;20030;-87
2022/04/01 01:38:11;;;;;;;35.15;8.75;;;;;;;;;;5032722;28;20030;-89
2022/04/01 01:40:37;;;;;;;31.58;7.63;;;;;;;;;;5031596;28;20077;-86
2022/04/01 01:43:03;;;;;;;51.92;8.05;;;;;;;;;;5032104;28;20036;-86
2022/04/01 01:45:29;;;;;;;35.42;7.55;;;;;;;;;;5031601;28;20037;-88
2022/04/01 01:47:55;;;;;;;35.53;8.82;;;;;;;;;;5031753;28;20036;-87
2022/04/01 01:55:49;;;;;;;37.38;9.43;;;;;;;;;;5032069;28;20087;-86
2022/04/01 01:58:15;;;;;;;39.60;8.55;;;;;;;;;;5031373;28;20480;-85
2022/04/01 02:00:42;;;;;;;48.50;9.90;;;;;;;;;;5031010;28;20461;-86
2022/04/01 02:03:09;;;;;;;28.85;7.80;;;;;;;;;;5031050;28;20028;-86
2022/04/01 02:05:34;;;;;;;39.30;8.45;;;;;;;;;;5030822;28;20028;-87
2022/04/01 02:08:01;;;;;;;40.75;9.13;;;;;;;;;;5031209;28;20029;-87
2022/04/01 02:10:26;;;;;;;30.13;7.20;;;;;;;;;;5032197;28;20465;-87
2022/04/01 02:12:52;;;;;;;38.17;9.15;;;;;;;;;;5030703;28;20116;-87
2022/04/01 02:15:17;;;;;;;32.17;8.38;;;;;;;;;;5032400;28;20366;-86
2022/04/01 02:17:43;;;;;;;36.00;7.78;;;;;;;;;;5030641;28;20492;-85
2022/04/01 02:20:09;;;;;;;36.30;7.88;;;;;;;;;;5031808;28;20104;-87
2022/04/01 02:22:38;;;;;;;41.13;9.25;;;;;;;;;;5031059;28;20025;-86
2022/04/01 02:25:07;;;;;;;46.17;10.63;;;;;;;;;;5031814;28;20022;-86
2022/04/01 02:27:33;;;;;;;48.17;9.77;;;;;;;;;;5032450;28;20068;-84
2022/04/01 02:29:58;;;;;;;42.10;8.18;;;;;;;;;;5030630;28;20029;-88
2022/04/01 02:32:25;;;;;;;37.00;8.65;;;;;;;;;;5030745;28;20139;-89
2022/04/01 02:34:50;;;;;;;37.83;8.13;;;;;;;;;;5031992;28;20105;-86
2022/04/01 02:37:21;;;;;;;41.88;9.63;;;;;;;;;;5031901;28;20676;-86
2022/04/01 02:39:47;;;;;;;52.53;9.57;;;;;;;;;;5031879;28;20021;-87
2022/04/01 02:42:12;;;;;;;42.95;11.32;;;;;;;;;;5030431;28;20120;-87
2022/04/01 02:44:38;;;;;;;44.78;8.52;;;;;;;;;;5030413;28;20497;-87
2022/04/01 02:47:03;;;;;;;35.38;9.82;;;;;;;;;;5030239;28;20029;-88
2022/04/01 02:49:29;;;;;;;47.95;8.38;;;;;;;;;;5031698;28;20037;-87
2022/04/01 02:51:54;;;;;;;46.45;9.23;;;;;;;;;;5030384;28;20044;-85
2022/04/01 02:54:21;;;;;;;55.05;10.13;;;;;;;;;;5029968;28;20033;-84
2022/04/01 02:56:47;;;;;;;42.50;10.65;;;;;;;;;;5031668;28;20037;-84
2022/04/01 02:59:12;;;;;;;44.50;9.27;;;;;;;;;;5031471;28;20358;-84
2022/04/01 03:01:40;;;;;;;37.67;8.75;;;;;;;;;;5031061;28;20432;-86
2022/04/01 03:04:09;;;;;;;39.80;8.95;;;;;;;;;;5031139;28;20033;-86
2022/04/01 03:06:36;;;;;;;51.33;10.00;;;;;;;;;;5030206;28;20026;-86
2022/04/01 03:09:01;;;;;;;44.33;10.80;;;;;;;;;;5030919;28;20058;-86
2022/04/01 03:11:27;;;;;;;39.42;9.55;;;;;;;;;;5031281;28;20059;-85
2022/04/01 03:13:52;;;;;;;39.53;9.93;;;;;;;;;;5028855;28;20029;-86
2022/04/01 03:16:18;;;;;;;45.78;9.02;;;;;;;;;;5030014;28;20027;-87
2022/04/01 03:18:43;;;;;;;42.72;8.68;;;;;;;;;;5030091;28;20481;-85
2022/04/01 03:21:10;;;;;;;67.13;12.23;;;;;;;;;;5030184;28;20116;-87
2022/04/01 03:23:37;;;;;;;64.95;13.35;;;;;;;;;;5030568;28;20087;-86
2022/04/01 03:26:03;;;;;;;45.85;11.27;;;;;;;;;;5030117;28;20040;-85
2022/04/01 03:28:28;;;;;;;44.90;10.32;;;;;;;;;;5030003;28;20033;-85
2022/04/01 03:30:54;;;;;;;38.90;10.32;;;;;;;;;;5031591;28;20029;-85
2022/04/01 03:33:20;;;;;;;47.92;10.57;;;;;;;;;;5033856;28;20056;-86
2022/04/01 03:35:46;;;;;;;40.20;9.40;;;;;;;;;;5034997;28;20061;-87
2022/04/01 03:38:12;;;;;;;42.38;9.38;;;;;;;;;;5033497;28;20037;-88
2022/04/01 03:40:40;;;;;;;66.57;14.48;;;;;;;;;;5035039;28;20030;-86
2022/04/01 03:43:06;;;;;;;53.90;11.85;;;;;;;;;;5033602;28;20104;-87
2022/04/01 03:45:33;;;;;;;49.80;9.60;;;;;;;;;;5034802;28;20489;-85
2022/04/01 03:48:10;;;;;;;42.97;10.73;;;;;;;;;;5033441;28;20416;-87
2022/04/01 03:50:39;;;;;;;43.00;10.05;;;;;;;;;;5032856;28;20033;-87
2022/04/01 03:53:07;;;;;;;53.10;9.73;;;;;;;;;;5034841;28;20036;-87
2022/04/01 03:55:36;;;;;;;40.03;10.32;;;;;;;;;;5033296;28;20052;-88
2022/04/01 03:58:07;;;;;;;39.80;11.85;;;;;;;;;;5034941;28;20029;-86
2022/04/01 04:00:32;;;;;;;61.13;10.98;;;;;;;;;;5033768;28;20466;-88
2022/04/01 04:02:59;;;;;;;41.20;11.40;;;;;;;;;;5033402;28;20071;-87
2022/04/01 04:05:27;;;;;;;57.05;10.77;;;;;;;;;;5031933;28;20017;-87
2022/04/01 04:07:53;;;;;;;49.90;11.05;;;;;;;;;;5034701;28;20029;-86
2022/04/01 04:10:21;;;;;;;41.05;9.77;;;;;;;;;;5032927;28;20108;-85
2022/04/01 04:12:48;;;;;;;47.10;10.18;;;;;;;;;;5034489;28;20037;-87
2022/04/01 04:15:14;;;;;;;59.25;10.98;;;;;;;;;;5033088;28;20037;-86
2022/04/01 04:17:45;;;;;;;42.95;10.85;;;;;;;;;;5033128;28;20029;-87
2022/04/01 04:20:33;;;;;;;50.60;10.18;;;;;;;;;;5032725;28;20033;-86
2022/04/01 04:23:15;;;;;;;45.25;10.35;;;;;;;;;;5033177;28;20106;-87
2022/04/01 04:25:43;;;;;;;45.80;11.02;;;;;;;;;;5034127;28;20484;-86
2022/04/01 04:28:12;;;;;;;55.53;10.65;;;;;;;;;;5034430;28;20025;-85
2022/04/01 04:30:47;;;;;;;54.00;10.48;;;;;;;;;;5033145;28;20029;-86
2022/04/01 04:33:16;;;;;;;55.15;10.93;;;;;;;;;;5032816;28;20037;-85
2022/04/01 04:35:43;;;;;;;46.05;9.82;;;;;;;;;;5032950;28;20030;-87
2022/04/01 04:38:10;;;;;;;48.40;11.73;;;;;;;;;;5033928;28;20025;-86
2022/04/01 04:40:36;;;;;;;53.70;11.48;;;;;;;;;;5032334;28;20078;-87
2022/04/01 04:43:01;;;;;;;74.50;12.55;;;;;;;;;;5032376;28;20033;-86
2022/04/01 04:45:28;;;;;;;43.20;9.98;;;;;;;;;;5032740;28;20029;-85
2022/04/01 04:47:54;;;;;;;49.05;10.35;;;;;;;;;;5032452;28;20036;-88
2022/04/01 04:50:21;;;;;;;41.58;9.57;;;;;;;;;;5032752;28;20104;-86
2022/04/01 04:52:51;;;;;;;46.03;10.77;;;;;;;;;;5033855;28;20074;-87
2022/04/01 04:55:18;;;;;;;53.63;10.95;;;;;;;;;;5034618;28;20052;-85
2022/04/01 04:57:45;;;;;;;53.45;10.38;;;;;;;;;;5032195;28;20029;-87
2022/04/01 05:00:11;;;;;;;48.55;9.85;;;;;;;;;;5030825;28;20422;-85
2022/04/01 05:02:46;;;;;;;48.28;9.30;;;;;;;;;;5032130;28;20022;-87
2022/04/01 05:05:18;;;;;;;55.42;11.93;;;;;;;;;;5031941;28;20026;-89
2022/04/01 05:08:08;;;;;;;57.97;10.95;;;;;;;;;;5033381;28;20069;-86
2022/04/01 05:10:42;;;;;;;47.50;9.95;;;;;;;;;;5032935;28;20420;-86
2022/04/01 05:13:11;;;;;;;38.60;12.70;;;;;;;;;;5034890;28;20033;-87
2022/04/01 05:15:39;;;;;;;53.85;11.90;;;;;;;;;;5032196;28;20028;-87
2022/04/01 05:18:14;;;;;;;49.60;11.57;;;;;;;;;;5032612;28;20056;-88
2022/04/01 05:21:01;;;;;;;54.47;10.13;;;;;;;;;;5032072;28;20608;-85
2022/04/01 05:23:48;;;;;;;55.75;9.75;;;;;;;;;;5032612;28;20029;-89
2022/04/01 05:26:20;;;;;;;42.28;10.50;;;;;;;;;;5031402;28;20021;-89
2022/04/01 05:28:51;;;;;;;51.03;10.32;;;;;;;;;;5034062;28;20021;-89
2022/04/01 05:31:25;;;;;;;55.38;10.52;;;;;;;;;;5034172;28;20029;-87
2022/04/01 05:34:04;;;;;;;44.97;9.43;;;;;;;;;;5025599;28;20027;-88
2022/04/01 05:36:30;;;;;;;54.67;10.73;;;;;;;;;;5033701;28;20033;-85
2022/04/01 05:38:57;;;;;;;52.33;10.00;;;;;;;;;;5033140;28;20469;-86
2022/04/01 05:41:25;;;;;;;46.55;9.15;;;;;;;;;;5033803;28;20044;-87
2022/04/01 05:43:53;;;;;;;49.38;8.40;;;;;;;;;;5031472;28;20083;-86
2022/04/01 05:46:22;;;;;;;42.53;8.25;;;;;;;;;;5032998;28;20043;-87
2022/04/01 05:48:49;;;;;;;40.92;9.45;;;;;;;;;;5033075;28;20487;-83
2022/04/01 05:51:15;;;;;;;35.45;7.40;;;;;;;;;;5031685;28;20029;-87
2022/04/01 05:53:46;;;;;;;45.03;8.25;;;;;;;;;;5030732;28;20392;-87
2022/04/01 05:56:13;;;;;;;33.17;7.80;;;;;;;;;;5031382;28;20102;-87
2022/04/01 05:58:40;;;;;;;37.08;8.02;;;;;;;;;;5031638;28;20116;-87
2022/04/01 06:01:43;;;;;;;44.88;8.30;;;;;;;;;;5031549;28;20208;-89
2022/04/01 06:04:21;;;;;;;36.25;7.88;;;;;;;;;;5034201;28;20472;-86
2022/04/01 06:06:48;;;;;;;41.88;9.27;;;;;;;;;;5031116;28;20381;-84
2022/04/01 06:09:35;;;;;;;36.85;7.72;;;;;;;;;;5030633;28;20529;-85
2022/04/01 06:12:07;;;;;;;37.20;8.32;;;;;;;;;;5031676;28;20053;-87
2022/04/01 06:14:49;;;;;;;45.55;8.10;;;;;;;;;;5030645;28;20112;-87
2022/04/01 06:17:28;;;;;;;36.67;8.07;;;;;;;;;;5030663;28;20112;-86
2022/04/01 06:19:56;;;;;;;40.75;8.63;;;;;;;;;;5045561;28;20369;-86
2022/04/01 06:22:28;;;;;;;32.22;8.60;;;;;;;;;;5031720;28;20048;-85
2022/04/01 06:25:15;;;;;;;40.03;8.00;;;;;;;;;;5028496;28;20465;-86
2022/04/01 06:27:48;;;;;;;49.47;9.63;;;;;;;;;;5029375;28;20029;-84
2022/04/01 06:30:19;;;;;;;39.38;10.13;;;;;;;;;;5030933;28;20036;-84
2022/04/01 06:33:06;;;;;;;42.05;8.13;;;;;;;;;;5030681;28;20029;-85
2022/04/01 06:35:56;;;;;;;31.63;8.75;;;;;;;;;;5030497;28;20040;-83
2022/04/01 06:38:34;;;;;;;31.60;8.65;;;;;;;;;;5031806;28;20017;-84
2022/04/01 06:41:14;;;;;;;37.90;8.20;;;;;;;;;;5029571;28;20471;-83
2022/04/01 06:43:39;;;;;;;42.95;8.20;;;;;;;;;;5030494;28;20033;-87
2022/04/01 06:46:07;;;;;;;44.80;9.55;;;;;;;;;;5031513;28;20029;-86
2022/04/01 06:48:33;;;;;;;53.80;10.02;;;;;;;;;;5031583;28;20021;-85
2022/04/01 06:50:59;;;;;;;63.45;8.93;;;;;;;;;;5031362;28;20029;-85
2022/04/01 06:53:25;;;;;;;45.13;10.02;;;;;;;;;;5032062;28;20135;-84
2022/04/01 06:55:52;;;;;;;41.58;9.02;;;;;;;;;;5030480;28;20056;-85
2022/04/01 06:58:18;;;;;;;48.88;10.23;;;;;;;;;;5031320;28;20032;-84
2022/04/01 07:00:44;;;;;;;58.72;10.48;;;;;;;;;;5031891;28;20404;-85
2022/04/01 07:03:10;;;;;;;41.33;8.95;;;;;;;;;;5030906;28;20052;-84
2022/04/01 07:05:36;;;;;;;44.70;8.93;;;;;;;;;;5030472;28;20032;-87
2022/04/01 07:08:05;;;;;;;45.42;11.05;;;;;;;;;;5033852;28;20420;-85
2022/04/01 07:10:31;;;;;;;58.10;10.65;;;;;;;;;;5035432;28;20025;-84
2022/04/01 07:12:57;;;;;;;48.75;11.65;;;;;;;;;;5035175;28;20022;-84
2022/04/01 07:15:23;;;;;;;48.78;11.68;;;;;;;;;;5035084;28;20142;-84
2022/04/01 07:17:48;;;;;;;43.55;9.52;;;;;;;;;;5034603;28;20072;-84
2022/04/01 07:20:14;;;;;;;39.72;7.40;;;;;;;;;;5034121;28;20067;-85
2022/04/01 07:22:40;;;;;;;43.08;9.38;;;;;;;;;;5035007;28;20025;-83
2022/04/01 07:25:12;;;;;;;49.83;11.25;;;;;;;;;;5035458;28;20025;-86
2022/04/01 07:27:38;;;;;;;42.97;9.70;;;;;;;;;;5033102;28;20029;-83
2022/04/01 07:30:09;;;;;;;36.50;9.35;;;;;;;;;;5035185;28;20029;-85
2022/04/01 07:32:36;;;;;;;49.28;9.23;;;;;;;;;;5162853;22;22132;-81
2022/04/01 07:35:05;;;;;;;44.47;9.32;;;;;;;;;;5055738;28;20065;-81
2022/04/01 07:37:31;;;;;;;38.88;7.95;;;;;;;;;;5046503;28;20100;-85
2022/04/01 07:39:57;;;;;;;51.80;9.82;;;;;;;;;;5052763;28;20039;-83
2022/04/01 07:42:28;;;;;;;43.92;8.48;;;;;;;;;;5053395;28;20029;-82
2022/04/01 07:44:54;;;;;;;47.60;9.80;;;;;;;;;;5056238;28;20028;-81
2022/04/01 07:47:21;;;;;;;50.92;8.65;;;;;;;;;;5049045;28;20037;-84
2022/04/01 07:49:47;;;;;;;54.53;11.60;;;;;;;;;;5056044;28;20025;-82
2022/04/01 07:52:14;;;;;;;57.38;10.50;;;;;;;;;;5052496;28;20082;-85
2022/04/01 07:54:42;;;;;;;44.10;9.55;;;;;;;;;;5052033;28;20017;-81
2022/04/01 07:57:08;;;;;;;43.65;8.07;;;;;;;;;;5052276;28;20388;-83
2022/04/01 07:59:35;;;;;;;44.50;9.40;;;;;;;;;;5053577;28;20060;-82
2022/04/01 08:02:02;;;;;;;33.90;8.18;;;;;;;;;;5052349;28;20033;-82
2022/04/01 08:04:27;;;;;;;35.95;8.13;;;;;;;;;;5052227;28;20025;-83
2022/04/01 08:06:54;;;;;;;41.72;8.80;;;;;;;;;;5052366;28;20035;-86
2022/04/01 08:09:20;;;;;;;38.15;9.48;;;;;;;;;;5053664;28;20345;-84
2022/04/01 08:11:46;;;;;;;47.05;10.82;;;;;;;;;;5049796;28;20021;-83
2022/04/01 08:14:12;;;;;;;38.03;8.80;;;;;;;;;;5053059;28;20060;-85
2022/04/01 08:16:37;;;;;;;43.85;9.55;;;;;;;;;;5049878;28;20025;-81
2022/04/01 08:19:03;;;;;;;51.47;11.63;;;;;;;;;;5051804;28;20150;-82
2022/04/01 08:21:31;;;;;;;39.45;8.15;;;;;;;;;;5049905;28;20067;-82
2022/04/01 08:23:57;;;;;;;39.25;8.52;;;;;;;;;;5053257;28;20107;-82
2022/04/01 08:26:23;;;;;;;49.28;10.02;;;;;;;;;;5053554;28;20028;-84
2022/04/01 08:28:49;;;;;;;38.97;8.80;;;;;;;;;;5051730;28;20131;-82
2022/04/01 08:31:15;;;;;;;37.72;9.93;;;;;;;;;;5053234;28;20103;-83
2022/04/01 08:33:40;;;;;;;36.67;9.32;;;;;;;;;;5051218;28;20049;-84
2022/04/01 08:36:06;;;;;;;33.45;8.02;;;;;;;;;;5051338;28;20036;-85
2022/04/01 08:38:31;;;;;;;37.03;9.25;;;;;;;;;;5049884;28;20021;-83
2022/04/01 08:40:57;;;;;;;41.75;10.38;;;;;;;;;;5049351;28;20384;-84
2022/04/01 08:43:30;;;;;;;36.38;7.63;;;;;;;;;;5051401;28;20426;-85
2022/04/01 08:45:58;;;;;;;41.10;8.30;;;;;;;;;;5048478;28;20029;-82
2022/04/01 08:48:25;;;;;;;38.35;9.43;;;;;;;;;;5050464;28;21515;-83
2022/04/01 08:50:50;;;;;;;36.63;8.00;;;;;;;;;;5044493;28;20124;-82
2022/04/01 08:53:16;;;;;;;43.47;9.73;;;;;;;;;;5049668;28;20116;-84
2022/04/01 08:55:55;;;;;;;45.55;8.73;;;;;;;;;;5049895;28;20033;-84
2022/04/01 08:58:23;;;;;;;39.97;8.53;;;;;;;;;;5048153;28;20440;-83
2022/04/01 09:00:50;;;;;;;36.30;9.82;;;;;;;;;;5048791;28;20469;-83
2022/04/01 09:03:17;;;;;;;54.50;10.77;;;;;;;;;;5049729;28;20045;-84
2022/04/01 09:05:51;;;;;;;39.00;9.23;;;;;;;;;;5042376;28;20029;-85
2022/04/01 09:08:22;;;;;;;41.90;8.93;;;;;;;;;;5051487;28;20027;-83
2022/04/01 09:10:55;;;;;;;37.60;8.02;;;;;;;;;;5049422;28;20063;-83
2022/04/01 09:13:23;;;;;;;44.08;9.70;;;;;;;;;;5050555;28;20029;-85
2022/04/01 09:15:48;;;;;;;35.65;8.38;;;;;;;;;;5051361;28;20054;-84
2022/04/01 09:18:32;;;;;;;28.08;8.27;;;;;;;;;;5050840;28;20472;-85
2022/04/01 09:20:58;;;;;;;42.20;9.55;;;;;;;;;;5050049;28;20079;-86
2022/04/01 09:23:24;;;;;;;39.75;8.48;;;;;;;;;;5050950;28;20049;-85
2022/04/01 09:25:51;;;;;;;36.47;8.07;;;;;;;;;;5049315;28;20029;-84
2022/04/01 09:28:29;;;;;;;39.35;10.15;;;;;;;;;;5051804;28;20025;-83
2022/04/01 09:31:06;;;;;;;46.47;10.30;;;;;;;;;;5051596;28;20050;-85
2022/04/01 09:33:45;;;;;;;41.22;8.90;;;;;;;;;;5051789;28;20049;-87
2022/04/01 09:36:15;;;;;;;42.35;8.73;;;;;;;;;;5049182;28;20038;-86
2022/04/01 09:38:50;;;;;;;;;;;;;;;;;;5051115;28;20036;-84
2022/04/01 09:41:18;;;;;;;34.40;7.50;;;;;;;;;;5050609;28;20532;-85
2022/04/01 09:43:44;;;;;;;45.85;10.15;;;;;;;;;;5050131;28;20094;-83
2022/04/01 09:46:26;;;;;;;48.33;9.43;;;;;;;;;;5049973;28;20456;-86
2022/04/01 09:48:56;;;;;;;30.52;7.88;;;;;;;;;;5065803;28;20581;-86
2022/04/01 09:51:22;;;;;;;39.92;7.80;;;;;;;;;;5050623;28;20032;-82
2022/04/01 09:53:52;;;;;;;37.03;8.68;;;;;;;;;;5047920;28;20021;-84
2022/04/01 09:56:18;;;;;;;45.38;10.38;;;;;;;;;;5045603;28;20028;-85
2022/04/01 09:58:44;;;;;;;39.80;10.50;;;;;;;;;;5051108;28;20032;-84
2022/04/01 10:01:10;;;;;;;34.10;7.90;;;;;;;;;;5050222;28;20558;-85
2022/04/01 10:03:36;;;;;;;32.28;7.13;;;;;;;;;;5051547;28;20040;-85
2022/04/01 10:06:02;;;;;;;30.08;7.30;;;;;;;;;;5047491;28;20025;-85
2022/04/01 10:08:29;;;;;;;32.70;7.22;;;;;;;;;;5050139;28;20078;-82
2022/04/01 10:10:55;;;;;;;33.63;7.72;;;;;;;;;;5049878;28;20033;-82
2022/04/01 10:13:29;;;;;;;30.88;5.95;;;;;;;;;;5051161;28;20104;-84
2022/04/01 10:15:57;;;;;;;29.55;7.40;;;;;;;;;;5047111;28;20449;-85
2022/04/01 10:18:23;;;;;;;24.58;6.35;;;;;;;;;;5045726;28;20025;-85
2022/04/01 10:20:53;;;;;;;37.15;7.78;;;;;;;;;;5050240;28;20025;-84
2022/04/01 10:23:21;;;;;;;31.52;7.47;;;;;;;;;;5049363;28;20377;-85
2022/04/01 10:26:07;;;;;;;33.25;9.18;;;;;;;;;;5050873;28;20025;-85
2022/04/01 10:28:32;;;;;;;32.58;7.15;;;;;;;;;;5049313;28;20074;-84
2022/04/01 10:31:01;;;;;;;27.20;6.05;;;;;;;;;;5050967;28;20025;-83
2022/04/01 10:33:29;;;;;;;38.83;8.60;;;;;;;;;;5048054;28;20041;-83
2022/04/01 10:35:55;;;;;;;27.70;7.32;;;;;;;;;;5048947;28;20032;-82
2022/04/01 10:38:26;;;;;;;31.15;6.30;;;;;;;;;;5050336;28;20035;-83
2022/04/01 10:40:53;;;;;;;33.55;7.80;;;;;;;;;;5050030;28;20350;-85
2022/04/01 10:43:21;;;;;;;33.03;7.28;;;;;;;;;;5049435;28;20029;-84
2022/04/01 10:46:11;;;;;;;34.97;8.00;;;;;;;;;;5049290;28;20021;-84
2022/04/01 10:51:36;;;;;;;40.15;8.32;;;;;;;;;;5047179;28;19920;-85
2022/04/01 10:54:12;;;;;;;25.58;5.55;;;;;;;;;;5048322;28;20083;-82
2022/04/01 10:56:39;;;;;;;32.20;7.20;;;;;;;;;;5050668;28;20365;-84
2022/04/01 10:59:05;;;;;;;26.15;5.50;;;;;;;;;;5049212;28;20040;-83
2022/04/01 11:01:32;;;;;;;34.22;6.22;;;;;;;;;;5049096;28;20041;-83
2022/04/01 11:04:13;;;;;;;26.45;5.55;;;;;;;;;;5050634;28;20021;-84
2022/04/01 11:07:21;;;;;;;30.67;6.97;;;;;;;;;;5048396;28;20464;-83
2022/04/01 11:09:56;;;;;;;20.10;5.28;;;;;;;;;;5043611;28;20163;-83
2022/04/01 11:12:51;;;;;;;28.92;6.15;;;;;;;;;;5045126;28;20021;-83
2022/04/01 11:15:24;;;;;;;26.65;5.63;;;;;;;;;;5045605;28;20057;-82
2022/04/01 11:17:55;;;;;;;20.38;6.50;;;;;;;;;;5047046;28;20106;-83
2022/04/01 11:20:27;;;;;;;25.75;5.70;;;;;;;;;;5046936;28;20025;-80
2022/04/01 11:22:53;;;;;;;28.80;8.68;;;;;;;;;;5050756;28;20021;-86
2022/04/01 11:25:24;;;;;;;27.88;6.60;;;;;;;;;;5049105;28;20032;-82
2022/04/01 11:28:06;;;;;;;30.02;6.90;;;;;;;;;;5049290;28;20031;-83
2022/04/01 11:30:42;;;;;;;26.70;6.85;;;;;;;;;;5046571;28;20330;-81
2022/04/01 11:33:34;;;;;;;24.67;6.53;;;;;;;;;;5047792;28;20053;-82
2022/04/01 11:35:59;;;;;;;33.50;6.82;;;;;;;;;;5046155;28;20045;-83
2022/04/01 11:38:27;;;;;;;28.60;6.18;;;;;;;;;;5050448;28;20032;-82
2022/04/01 11:40:56;;;;;;;28.35;6.20;;;;;;;;;;5049868;28;20025;-84
2022/04/01 11:43:24;;;;;;;25.50;6.60;;;;;;;;;;5050190;28;20139;-85
2022/04/01 11:45:57;;;;;;;21.90;5.80;;;;;;;;;;5049260;28;20503;-86
2022/04/01 11:48:33;;;;;;;27.80;7.43;;;;;;;;;;5050310;28;20028;-86
2022/04/01 11:51:05;;;;;;;24.10;5.35;;;;;;;;;;5048159;28;20036;-84
2022/04/01 11:53:35;;;;;;;28.33;6.85;;;;;;;;;;5051341;28;20067;-82
2022/04/01 11:56:00;;;;;;;;;;;;;;;;;;5054528;28;20032;-82
2022/04/01 11:58:33;;;;;;;27.23;6.60;;;;;;;;;;5052682;28;19920;-83
2022/04/01 12:00:58;;;;;;;30.08;6.57;;;;;;;;;;5052769;28;20031;-81
2022/04/01 12:03:24;;;;;;;23.45;7.13;;;;;;;;;;5052868;28;20460;-83
2022/04/01 12:08:41;;;;;;;27.17;7.00;;;;;;;;;;5052419;28;20024;-82
2022/04/01 12:08:44;;;;;;;25.17;5.78;;;;;;;;;;5051840;28;20108;-82
2022/04/01 12:11:10;;;;;;;27.20;7.65;;;;;;;;;;5053570;28;20068;-84
2022/04/01 12:13:42;;;;;;;21.70;5.57;;;;;;;;;;5053505;28;20021;-81
2022/04/01 12:16:08;;;;;;;22.65;5.90;;;;;;;;;;5052663;28;20476;-83
2022/04/01 12:18:35;;;;;;;24.88;6.47;;;;;;;;;;5052084;28;20032;-82
2022/04/01 12:21:01;;;;;;;27.20;8.15;;;;;;;;;;5052222;28;20037;-81
2022/04/01 12:23:32;;;;;;;27.58;7.25;;;;;;;;;;5053459;28;20036;-83
2022/04/01 12:25:59;;;;;;;20.27;5.93;;;;;;;;;;5052203;28;20491;-83
2022/04/01 12:28:47;;;;;;;26.80;5.88;;;;;;;;;;5053542;28;20025;-84
2022/04/01 12:31:24;;;;;;;27.20;5.90;;;;;;;;;;5051734;28;20511;-85
2022/04/01 12:33:52;;;;;;;25.40;6.25;;;;;;;;;;5053622;28;20504;-82
2022/04/01 12:36:34;;;;;;;20.67;5.60;;;;;;;;;;5051766;28;20108;-84
2022/04/01 12:39:12;;;;;;;20.30;5.15;;;;;;;;;;5053125;28;20017;-83
2022/04/01 12:41:53;;;;;;;25.73;6.93;;;;;;;;;;5051701;28;20111;-82
2022/04/01 12:44:26;;;;;;;20.33;4.63;;;;;;;;;;5051144;28;20040;-81
2022/04/01 12:46:52;;;;;;;20.80;6.13;;;;;;;;;;5053435;28;20031;-84
2022/04/01 12:49:20;;;;;;;22.85;6.07;;;;;;;;;;5053117;28;20025;-84
2022/04/01 12:51:55;;;;;;;29.00;6.90;;;;;;;;;;5053017;28;20512;-83
2022/04/01 12:54:33;;;;;;;27.00;6.43;;;;;;;;;;5051883;28;20044;-82
2022/04/01 12:57:00;;;;;;;27.40;5.57;;;;;;;;;;5052506;28;20024;-84
2022/04/01 12:59:26;;;;;;;27.20;5.72;;;;;;;;;;5051733;28;20492;-83
2022/04/01 13:01:58;;;;;;;20.13;5.75;;;;;;;;;;5051384;28;20091;-82
2022/04/01 13:04:23;;;;;;;29.15;6.80;;;;;;;;;;5052435;28;20028;-83
2022/04/01 13:07:12;;;;;;;22.98;6.75;;;;;;;;;;5051406;28;20431;-81
2022/04/01 13:09:55;;;;;;;30.67;7.70;;;;;;;;;;5051423;28;20074;-83
2022/04/01 13:12:37;;;;;;;22.63;5.03;;;;;;;;;;5051439;28;20035;-82
2022/04/01 13:15:06;;;;;;;18.90;5.60;;;;;;;;;;5052271;28;20037;-82
2022/04/01 13:17:42;;;;;;;19.08;5.85;;;;;;;;;;5052166;28;20108;-82
2022/04/01 13:20:12;;;;;;;21.70;5.55;;;;;;;;;;5050045;28;20544;-81
2022/04/01 13:22:41;;;;;;;25.20;5.88;;;;;;;;;;5050900;28;20490;-81
2022/04/01 13:25:12;;;;;;;23.13;6.40;;;;;;;;;;5049889;28;20178;-81
2022/04/01 13:27:39;;;;;;;27.65;5.65;;;;;;;;;;5051810;28;20036;-81
2022/04/01 13:30:07;;;;;;;23.48;6.22;;;;;;;;;;5051053;28;20036;-81
2022/04/01 13:32:33;;;;;;;22.85;5.78;;;;;;;;;;5051739;28;20036;-81
2022/04/01 13:35:05;;;;;;;23.77;6.93;;;;;;;;;;5052451;28;20033;-81
2022/04/01 13:37:31;;;;;;;26.73;6.78;;;;;;;;;;5050502;28;20103;-81
2022/04/01 13:39:57;;;;;;;30.25;9.13;;;;;;;;;;5052297;28;20489;-82
2022/04/01 13:42:26;;;;;;;28.85;6.53;;;;;;;;;;5051096;28;20025;-85
2022/04/01 13:44:52;;;;;;;22.42;6.32;;;;;;;;;;5050479;28;20491;-85
2022/04/01 13:47:18;;;;;;;28.30;7.22;;;;;;;;;;5051890;28;20060;-82
2022/04/01 13:49:44;;;;;;;33.88;8.27;;;;;;;;;;5051082;28;20385;-83
2022/04/01 13:52:10;;;;;;;25.42;6.65;;;;;;;;;;5050421;28;20028;-82
2022/04/01 13:54:37;;;;;;;33.70;7.65;;;;;;;;;;5051885;28;20029;-82
2022/04/01 13:57:03;;;;;;;24.35;7.07;;;;;;;;;;5051821;28;20037;-83
2022/04/01 13:59:29;;;;;;;29.05;6.47;;;;;;;;;;5050648;28;20040;-84
2022/04/01 14:01:55;;;;;;;25.25;6.93;;;;;;;;;;5050373;28;20021;-82
2022/04/01 14:04:20;;;;;;;30.35;6.13;;;;;;;;;;5051540;28;20423;-84
2022/04/01 14:06:49;;;;;;;26.88;7.75;;;;;;;;;;5051325;28;20059;-82
2022/04/01 14:09:15;;;;;;;22.38;5.82;;;;;;;;;;5051695;28;20087;-82
2022/04/01 14:11:40;;;;;;;23.25;7.10;;;;;;;;;;5051432;28;20040;-83
2022/04/01 14:14:07;;;;;;;20.15;5.75;;;;;;;;;;5050118;28;20366;-82
2022/04/01 14:16:35;;;;;;;25.23;5.85;;;;;;;;;;5051389;28;20017;-84
2022/04/01 14:19:06;;;;;;;34.85;8.57;;;;;;;;;;5052523;28;20125;-84
2022/04/01 14:21:35;;;;;;;30.10;7.35;;;;;;;;;;5050916;28;20033;-85
2022/04/01 14:24:01;;;;;;;43.33;9.20;;;;;;;;;;5051453;28;20033;-81
2022/04/01 14:26:28;;;;;;;10.70;2.65;;;;;;;;;;5049915;28;20027;-80
2022/04/01 14:28:55;;;;;;;13.77;2.40;;;;;;;;;;5051350;28;20028;-80
2022/04/01 14:31:21;;;;;;;12.82;3.25;;;;;;;;;;5049919;28;20087;-83
2022/04/01 14:33:47;;;;;;;12.15;3.65;;;;;;;;;;5049927;28;20497;-85
2022/04/01 14:36:13;;;;;;;10.90;2.95;;;;;;;;;;5051192;28;20044;-83
2022/04/01 14:38:41;;;;;;;8.00;2.20;;;;;;;;;;5049898;28;20029;-81
2022/04/01 14:41:07;;;;;;;11.98;1.90;;;;;;;;;;5050001;28;20083;-83
2022/04/01 14:43:32;;;;;;;5.57;1.98;;;;;;;;;;5049828;28;20025;-83
2022/04/01 14:45:58;;;;;;;2.75;1.30;;;;;;;;;;5050407;28;20021;-82
2022/04/01 14:48:23;;;;;;;2.00;0.88;;;;;;;;;;5051049;28;20820;-84